PWSweather.com
Personal Weather Stations
Station Observations
SELKIRK1
Ontario, Selkirk, ON N0A 1P0

OntarioSelkirk, ON N0A 1P0

Lat: 42.8083652, Lon: -79.94971040000001

Elevation: 583

Station Type: Acurite 5 in 1

http://gavinsurf.com

High Low Average
Temperature 73.1°F22.8°C 56.3°F13.5°C 64.5°F18.1°C
Dew Point 67.3°F19.6°C 56.0°F13.3°C 62.7°F17.1°C
Winds 19.6 mph 31.5 kmh 1.2 mph 1.9 kmh 4.0 mph SE6.4 kmh SE
Wind Gusts 19.6 mph31.5 kmh 1.2 mph1.9 kmh 4.0 mph6.4 kmh
Humidity 99% 82% 94%
Pressure 31.83 in1077.9 mb 31.83 in1077.9 mb -
Precipitation 0.36 in9.1 mm - -
Hour Temp Dew Point Humidity Winds Wind Gusts Pressure Precip Precip Rate Daily Precip Total
12:00 AM 59.0°F15.0°C 58.1°F14.5°C 97% 1.2 mph E1.9 kmh E 1.2 mph1.9 kmh 31.83 in1077.9 mb - 0.00 in0.0 mm 0.00 in0.0 mm
12:10 AM 58.8°F14.9°C 57.9°F14.4°C 97% 2.3 mph ENE3.7 kmh ENE 2.3 mph3.7 kmh 31.83 in1077.9 mb - 0.00 in0.0 mm 0.00 in0.0 mm
12:15 AM 58.7°F14.8°C 58.1°F14.5°C 98% 1.2 mph E1.9 kmh E 2.3 mph3.7 kmh 31.83 in1077.9 mb - 0.00 in0.0 mm 0.00 in0.0 mm
12:20 AM 58.7°F14.8°C 58.1°F14.5°C 98% 1.2 mph ENE1.9 kmh ENE 1.2 mph1.9 kmh 31.83 in1077.9 mb - 0.00 in0.0 mm 0.00 in0.0 mm
12:25 AM 58.5°F14.7°C 57.9°F14.4°C 98% 2.3 mph ENE3.7 kmh ENE 2.3 mph3.7 kmh 31.83 in1077.9 mb - 0.00 in0.0 mm 0.00 in0.0 mm
12:30 AM 58.5°F14.7°C 57.9°F14.4°C 98% 2.3 mph ENE3.7 kmh ENE 2.3 mph3.7 kmh 31.83 in1077.9 mb - 0.00 in0.0 mm 0.00 in0.0 mm
12:35 AM 58.5°F14.7°C 57.9°F14.4°C 98% 2.3 mph E3.7 kmh E 2.3 mph3.7 kmh 31.83 in1077.9 mb - 0.00 in0.0 mm 0.00 in0.0 mm
12:40 AM 58.3°F14.6°C 57.7°F14.3°C 98% 2.3 mph E3.7 kmh E 2.3 mph3.7 kmh 31.83 in1077.9 mb - 0.00 in0.0 mm 0.00 in0.0 mm
12:45 AM 58.3°F14.6°C 57.7°F14.3°C 98% 2.3 mph E3.7 kmh E 2.3 mph3.7 kmh 31.83 in1077.9 mb - 0.00 in0.0 mm 0.00 in0.0 mm
12:50 AM 58.3°F14.6°C 57.7°F14.3°C 98% 2.3 mph ENE3.7 kmh ENE 2.3 mph3.7 kmh 31.83 in1077.9 mb - 0.00 in0.0 mm 0.00 in0.0 mm
12:55 AM 58.3°F14.6°C 57.7°F14.3°C 98% 2.3 mph ENE3.7 kmh ENE 2.3 mph3.7 kmh 31.83 in1077.9 mb - 0.00 in0.0 mm 0.00 in0.0 mm
01:00 AM 58.3°F14.6°C 57.7°F14.3°C 98% 2.3 mph E3.7 kmh E 2.3 mph3.7 kmh 31.83 in1077.9 mb - 0.00 in0.0 mm 0.00 in0.0 mm
01:10 AM 58.1°F14.5°C 57.5°F14.2°C 98% 2.3 mph ENE3.7 kmh ENE 2.3 mph3.7 kmh 31.83 in1077.9 mb - 0.00 in0.0 mm 0.00 in0.0 mm
01:15 AM 58.1°F14.5°C 57.5°F14.2°C 98% 2.3 mph ENE3.7 kmh ENE 2.3 mph3.7 kmh 31.83 in1077.9 mb - 0.00 in0.0 mm 0.00 in0.0 mm
01:20 AM 58.1°F14.5°C 57.5°F14.2°C 98% 1.2 mph NE1.9 kmh NE 1.2 mph1.9 kmh 31.83 in1077.9 mb - 0.00 in0.0 mm 0.00 in0.0 mm
01:25 AM 58.0°F14.4°C 57.4°F14.1°C 98% 1.2 mph ENE1.9 kmh ENE 2.3 mph3.7 kmh 31.83 in1077.9 mb - 0.00 in0.0 mm 0.00 in0.0 mm
01:30 AM 57.9°F14.4°C 57.3°F14.1°C 98% 2.3 mph NNE3.7 kmh NNE 3.5 mph5.6 kmh 31.83 in1077.9 mb - 0.00 in0.0 mm 0.00 in0.0 mm
01:35 AM 57.8°F14.3°C 57.2°F14.0°C 98% 4.6 mph NNE7.4 kmh NNE 5.8 mph9.3 kmh 31.83 in1077.9 mb - 0.00 in0.0 mm 0.00 in0.0 mm
01:40 AM 57.7°F14.3°C 57.2°F14.0°C 98% 4.6 mph N7.4 kmh N 4.6 mph7.4 kmh 31.83 in1077.9 mb - 0.00 in0.0 mm 0.00 in0.0 mm
01:45 AM 57.4°F14.1°C 57.1°F13.9°C 99% 3.5 mph NNE5.6 kmh NNE 3.5 mph5.6 kmh 31.83 in1077.9 mb - 0.00 in0.0 mm 0.00 in0.0 mm
01:50 AM 57.2°F14.0°C 56.9°F13.8°C 99% 2.3 mph NE3.7 kmh NE 2.3 mph3.7 kmh 31.83 in1077.9 mb - 0.00 in0.0 mm 0.00 in0.0 mm
01:55 AM 57.0°F13.9°C 56.7°F13.7°C 99% 1.2 mph ENE1.9 kmh ENE 1.2 mph1.9 kmh 31.83 in1077.9 mb - 0.00 in0.0 mm 0.00 in0.0 mm
02:00 AM 57.0°F13.9°C 56.7°F13.7°C 99% 1.2 mph ENE1.9 kmh ENE 1.2 mph1.9 kmh 31.83 in1077.9 mb - 0.00 in0.0 mm 0.00 in0.0 mm
02:10 AM 56.7°F13.7°C 56.4°F13.6°C 99% 2.3 mph NE3.7 kmh NE 2.3 mph3.7 kmh 31.83 in1077.9 mb - 0.00 in0.0 mm 0.00 in0.0 mm
02:15 AM 56.7°F13.7°C 56.4°F13.6°C 99% 1.2 mph ENE1.9 kmh ENE 1.2 mph1.9 kmh 31.83 in1077.9 mb - 0.00 in0.0 mm 0.00 in0.0 mm
02:20 AM 56.5°F13.6°C 56.2°F13.4°C 99% 1.2 mph NE1.9 kmh NE 1.2 mph1.9 kmh 31.83 in1077.9 mb - 0.00 in0.0 mm 0.00 in0.0 mm
02:25 AM 56.5°F13.6°C 56.2°F13.4°C 99% 1.2 mph NE1.9 kmh NE 2.3 mph3.7 kmh 31.83 in1077.9 mb - 0.00 in0.0 mm 0.00 in0.0 mm
02:30 AM 56.5°F13.6°C 56.2°F13.4°C 99% 1.2 mph NE1.9 kmh NE 2.3 mph3.7 kmh 31.83 in1077.9 mb - 0.00 in0.0 mm 0.00 in0.0 mm
02:35 AM 56.5°F13.6°C 56.2°F13.4°C 99% 2.3 mph NE3.7 kmh NE 2.3 mph3.7 kmh 31.83 in1077.9 mb - 0.00 in0.0 mm 0.00 in0.0 mm
02:40 AM 56.3°F13.5°C 56.0°F13.3°C 99% 2.3 mph NE3.7 kmh NE 2.3 mph3.7 kmh 31.83 in1077.9 mb - 0.00 in0.0 mm 0.00 in0.0 mm
02:45 AM 56.3°F13.5°C 56.0°F13.3°C 99% 1.2 mph ENE1.9 kmh ENE 2.3 mph3.7 kmh 31.83 in1077.9 mb - 0.00 in0.0 mm 0.00 in0.0 mm
02:50 AM 56.3°F13.5°C 56.0°F13.3°C 99% 1.2 mph E1.9 kmh E 1.2 mph1.9 kmh 31.83 in1077.9 mb - 0.00 in0.0 mm 0.00 in0.0 mm
02:55 AM 56.3°F13.5°C 56.0°F13.3°C 99% 2.3 mph E3.7 kmh E 2.3 mph3.7 kmh 31.83 in1077.9 mb - 0.00 in0.0 mm 0.00 in0.0 mm
03:00 AM 56.3°F13.5°C 56.0°F13.3°C 99% 2.3 mph ENE3.7 kmh ENE 2.3 mph3.7 kmh 31.83 in1077.9 mb - 0.00 in0.0 mm 0.00 in0.0 mm
03:10 AM 56.3°F13.5°C 56.0°F13.3°C 99% 2.3 mph E3.7 kmh E 2.3 mph3.7 kmh 31.83 in1077.9 mb - 0.00 in0.0 mm 0.00 in0.0 mm
03:15 AM 56.3°F13.5°C 56.0°F13.3°C 99% 2.3 mph ENE3.7 kmh ENE 2.3 mph3.7 kmh 31.83 in1077.9 mb - 0.00 in0.0 mm 0.00 in0.0 mm
03:20 AM 56.3°F13.5°C 56.0°F13.3°C 99% 2.3 mph E3.7 kmh E 2.3 mph3.7 kmh 31.83 in1077.9 mb - 0.00 in0.0 mm 0.00 in0.0 mm
03:25 AM 56.3°F13.5°C 56.0°F13.3°C 99% 2.3 mph ENE3.7 kmh ENE 2.3 mph3.7 kmh 31.83 in1077.9 mb - 0.00 in0.0 mm 0.00 in0.0 mm
03:30 AM 56.5°F13.6°C 56.2°F13.4°C 99% 2.3 mph E3.7 kmh E 2.3 mph3.7 kmh 31.83 in1077.9 mb - 0.00 in0.0 mm 0.00 in0.0 mm
03:35 AM 56.6°F13.7°C 56.3°F13.5°C 99% 2.3 mph ENE3.7 kmh ENE 3.5 mph5.6 kmh 31.83 in1077.9 mb - 0.00 in0.0 mm 0.00 in0.0 mm
03:40 AM 56.7°F13.7°C 56.4°F13.6°C 99% 2.3 mph ENE3.7 kmh ENE 2.3 mph3.7 kmh 31.83 in1077.9 mb - 0.00 in0.0 mm 0.00 in0.0 mm
03:45 AM 56.9°F13.8°C 56.6°F13.7°C 99% 2.3 mph E3.7 kmh E 2.3 mph3.7 kmh 31.83 in1077.9 mb - 0.00 in0.0 mm 0.00 in0.0 mm
03:50 AM 56.9°F13.8°C 56.6°F13.7°C 99% 2.3 mph E3.7 kmh E 2.3 mph3.7 kmh 31.83 in1077.9 mb - 0.00 in0.0 mm 0.00 in0.0 mm
03:55 AM 57.0°F13.9°C 56.7°F13.7°C 99% 2.3 mph ENE3.7 kmh ENE 2.3 mph3.7 kmh 31.83 in1077.9 mb - 0.00 in0.0 mm 0.00 in0.0 mm
04:00 AM 57.2°F14.0°C 56.9°F13.8°C 99% 2.3 mph E3.7 kmh E 2.3 mph3.7 kmh 31.83 in1077.9 mb - 0.00 in0.0 mm 0.00 in0.0 mm
04:10 AM 57.2°F14.0°C 56.9°F13.8°C 99% 2.3 mph E3.7 kmh E 2.3 mph3.7 kmh 31.83 in1077.9 mb - 0.00 in0.0 mm 0.00 in0.0 mm
04:15 AM 57.4°F14.1°C 57.1°F13.9°C 99% 2.3 mph ENE3.7 kmh ENE 2.3 mph3.7 kmh 31.83 in1077.9 mb - 0.00 in0.0 mm 0.00 in0.0 mm
04:20 AM 57.4°F14.1°C 57.1°F13.9°C 99% 2.3 mph E3.7 kmh E 2.3 mph3.7 kmh 31.83 in1077.9 mb - 0.00 in0.0 mm 0.00 in0.0 mm
04:25 AM 57.6°F14.2°C 57.3°F14.1°C 99% 2.3 mph E3.7 kmh E 2.3 mph3.7 kmh 31.83 in1077.9 mb - 0.00 in0.0 mm 0.00 in0.0 mm
04:30 AM 57.8°F14.3°C 57.5°F14.2°C 99% 2.3 mph ENE3.7 kmh ENE 2.3 mph3.7 kmh 31.83 in1077.9 mb - 0.00 in0.0 mm 0.00 in0.0 mm
04:35 AM 57.8°F14.3°C 57.5°F14.2°C 99% 2.3 mph E3.7 kmh E 3.5 mph5.6 kmh 31.83 in1077.9 mb - 0.00 in0.0 mm 0.00 in0.0 mm
04:40 AM 58.1°F14.5°C 57.8°F14.3°C 99% 3.5 mph E5.6 kmh E 3.5 mph5.6 kmh 31.83 in1077.9 mb - 0.00 in0.0 mm 0.00 in0.0 mm
04:45 AM 58.5°F14.7°C 58.2°F14.6°C 99% 2.3 mph E3.7 kmh E 3.5 mph5.6 kmh 31.83 in1077.9 mb - 0.00 in0.0 mm 0.00 in0.0 mm
04:50 AM 58.8°F14.9°C 58.2°F14.6°C 98% 3.5 mph E5.6 kmh E 4.6 mph7.4 kmh 31.83 in1077.9 mb - 0.00 in0.0 mm 0.00 in0.0 mm
04:55 AM 59.0°F15.0°C 58.4°F14.7°C 98% 2.3 mph E3.7 kmh E 2.3 mph3.7 kmh 31.83 in1077.9 mb - 0.00 in0.0 mm 0.00 in0.0 mm
05:00 AM 59.0°F15.0°C 58.1°F14.5°C 97% 2.3 mph E3.7 kmh E 2.3 mph3.7 kmh 31.83 in1077.9 mb - 0.00 in0.0 mm 0.00 in0.0 mm
05:10 AM 59.4°F15.2°C 58.5°F14.7°C 97% 3.5 mph E5.6 kmh E 3.5 mph5.6 kmh 31.83 in1077.9 mb - 0.00 in0.0 mm 0.00 in0.0 mm
05:15 AM 59.6°F15.3°C 58.7°F14.8°C 97% 3.5 mph E5.6 kmh E 3.5 mph5.6 kmh 31.83 in1077.9 mb - 0.00 in0.0 mm 0.00 in0.0 mm
05:20 AM 59.9°F15.5°C 59.0°F15.0°C 97% 3.5 mph E5.6 kmh E 3.5 mph5.6 kmh 31.83 in1077.9 mb - 0.00 in0.0 mm 0.00 in0.0 mm
05:25 AM 60.3°F15.7°C 59.4°F15.2°C 97% 3.5 mph E5.6 kmh E 3.5 mph5.6 kmh 31.83 in1077.9 mb - 0.00 in0.0 mm 0.00 in0.0 mm
05:30 AM 60.5°F15.8°C 59.3°F15.2°C 96% 3.5 mph E5.6 kmh E 4.6 mph7.4 kmh 31.83 in1077.9 mb - 0.00 in0.0 mm 0.00 in0.0 mm
05:35 AM 60.6°F15.9°C 59.4°F15.2°C 96% 3.5 mph ESE5.6 kmh ESE 4.6 mph7.4 kmh 31.83 in1077.9 mb - 0.00 in0.0 mm 0.00 in0.0 mm
05:40 AM 60.8°F16.0°C 59.6°F15.3°C 96% 4.6 mph E7.4 kmh E 5.8 mph9.3 kmh 31.83 in1077.9 mb - 0.00 in0.0 mm 0.00 in0.0 mm
05:45 AM 61.2°F16.2°C 60.0°F15.6°C 96% 2.3 mph E3.7 kmh E 3.5 mph5.6 kmh 31.83 in1077.9 mb - 0.00 in0.0 mm 0.00 in0.0 mm
05:50 AM 61.5°F16.4°C 60.3°F15.7°C 96% 2.3 mph ESE3.7 kmh ESE 3.5 mph5.6 kmh 31.83 in1077.9 mb - 0.00 in0.0 mm 0.00 in0.0 mm
05:55 AM 61.8°F16.6°C 60.6°F15.9°C 96% 2.3 mph E3.7 kmh E 3.5 mph5.6 kmh 31.83 in1077.9 mb - 0.00 in0.0 mm 0.00 in0.0 mm
06:00 AM 62.2°F16.8°C 61.0°F16.1°C 96% 2.3 mph E3.7 kmh E 2.3 mph3.7 kmh 31.83 in1077.9 mb - 0.00 in0.0 mm 0.00 in0.0 mm
06:10 AM 62.9°F17.2°C 61.4°F16.3°C 95% 2.3 mph E3.7 kmh E 2.3 mph3.7 kmh 31.83 in1077.9 mb - 0.00 in0.0 mm 0.00 in0.0 mm
06:15 AM 63.0°F17.2°C 61.2°F16.2°C 94% 2.3 mph E3.7 kmh E 3.5 mph5.6 kmh 31.83 in1077.9 mb - 0.00 in0.0 mm 0.00 in0.0 mm
06:20 AM 63.2°F17.3°C 61.4°F16.3°C 94% 2.3 mph ESE3.7 kmh ESE 2.3 mph3.7 kmh 31.83 in1077.9 mb - 0.00 in0.0 mm 0.00 in0.0 mm
06:25 AM 63.5°F17.5°C 61.4°F16.3°C 93% 2.3 mph E3.7 kmh E 2.3 mph3.7 kmh 31.83 in1077.9 mb - 0.00 in0.0 mm 0.00 in0.0 mm
06:30 AM 63.8°F17.7°C 61.7°F16.5°C 93% 2.3 mph E3.7 kmh E 3.5 mph5.6 kmh 31.83 in1077.9 mb - 0.00 in0.0 mm 0.00 in0.0 mm
06:35 AM 63.9°F17.7°C 61.5°F16.4°C 92% 2.3 mph E3.7 kmh E 2.3 mph3.7 kmh 31.83 in1077.9 mb - 0.00 in0.0 mm 0.00 in0.0 mm
06:40 AM 63.7°F17.6°C 61.0°F16.1°C 91% 3.5 mph E5.6 kmh E 3.5 mph5.6 kmh 31.83 in1077.9 mb - 0.00 in0.0 mm 0.00 in0.0 mm
06:45 AM 64.1°F17.8°C 61.4°F16.3°C 91% 3.5 mph ESE5.6 kmh ESE 3.5 mph5.6 kmh 31.83 in1077.9 mb - 0.00 in0.0 mm 0.00 in0.0 mm
06:50 AM 64.2°F17.9°C 61.5°F16.4°C 91% 2.3 mph ESE3.7 kmh ESE 2.3 mph3.7 kmh 31.83 in1077.9 mb - 0.00 in0.0 mm 0.00 in0.0 mm
06:55 AM 64.3°F17.9°C 61.6°F16.4°C 91% 2.3 mph E3.7 kmh E 2.3 mph3.7 kmh 31.83 in1077.9 mb - 0.00 in0.0 mm 0.00 in0.0 mm
07:00 AM 64.6°F18.1°C 61.6°F16.4°C 90% 2.3 mph E3.7 kmh E 3.5 mph5.6 kmh 31.83 in1077.9 mb - 0.00 in0.0 mm 0.00 in0.0 mm
07:10 AM 64.5°F18.1°C 61.5°F16.4°C 90% 2.3 mph SE3.7 kmh SE 2.3 mph3.7 kmh 31.83 in1077.9 mb - 0.00 in0.0 mm 0.00 in0.0 mm
07:15 AM 64.9°F18.3°C 61.6°F16.4°C 89% 2.3 mph E3.7 kmh E 2.3 mph3.7 kmh 31.83 in1077.9 mb - 0.00 in0.0 mm 0.00 in0.0 mm
07:20 AM 65.1°F18.4°C 61.7°F16.5°C 89% 2.3 mph ESE3.7 kmh ESE 4.6 mph7.4 kmh 31.83 in1077.9 mb - 0.00 in0.0 mm 0.00 in0.0 mm
07:25 AM 65.3°F18.5°C 61.6°F16.4°C 88% 2.3 mph ESE3.7 kmh ESE 3.5 mph5.6 kmh 31.83 in1077.9 mb - 0.00 in0.0 mm 0.00 in0.0 mm
07:30 AM 65.6°F18.7°C 61.9°F16.6°C 88% 3.5 mph SE5.6 kmh SE 3.5 mph5.6 kmh 31.83 in1077.9 mb - 0.00 in0.0 mm 0.00 in0.0 mm
07:35 AM 65.9°F18.8°C 62.0°F16.7°C 87% 2.3 mph E3.7 kmh E 1.2 mph1.9 kmh 31.83 in1077.9 mb - 0.00 in0.0 mm 0.00 in0.0 mm
07:40 AM 65.5°F18.6°C 61.9°F16.6°C 88% 2.3 mph E3.7 kmh E 3.5 mph5.6 kmh 31.83 in1077.9 mb - 0.00 in0.0 mm 0.00 in0.0 mm
07:45 AM 65.3°F18.5°C 62.0°F16.7°C 89% 2.3 mph ESE3.7 kmh ESE 2.3 mph3.7 kmh 31.83 in1077.9 mb - 0.00 in0.0 mm 0.00 in0.0 mm
07:50 AM 64.6°F18.1°C 61.3°F16.3°C 89% 1.2 mph SE1.9 kmh SE 2.3 mph3.7 kmh 31.83 in1077.9 mb - 0.00 in0.0 mm 0.00 in0.0 mm
07:55 AM 64.4°F18.0°C 61.4°F16.3°C 90% 2.3 mph ESE3.7 kmh ESE 4.6 mph7.4 kmh 31.83 in1077.9 mb - 0.00 in0.0 mm 0.00 in0.0 mm
08:00 AM 64.6°F18.1°C 61.6°F16.4°C 90% 2.3 mph E3.7 kmh E 2.3 mph3.7 kmh 31.83 in1077.9 mb - 0.00 in0.0 mm 0.00 in0.0 mm
08:10 AM 65.5°F18.6°C 62.2°F16.8°C 89% 2.3 mph E3.7 kmh E 2.3 mph3.7 kmh 31.83 in1077.9 mb - 0.00 in0.0 mm 0.00 in0.0 mm
08:15 AM 65.7°F18.7°C 62.0°F16.7°C 88% 2.3 mph E3.7 kmh E 3.5 mph5.6 kmh 31.83 in1077.9 mb - 0.00 in0.0 mm 0.00 in0.0 mm
08:20 AM 66.1°F18.9°C 62.1°F16.7°C 87% 3.5 mph SE5.6 kmh SE 4.6 mph7.4 kmh 31.83 in1077.9 mb - 0.00 in0.0 mm 0.00 in0.0 mm
08:25 AM 65.9°F18.8°C 61.9°F16.6°C 87% 3.5 mph SE5.6 kmh SE 2.3 mph3.7 kmh 31.83 in1077.9 mb - 0.00 in0.0 mm 0.00 in0.0 mm
08:30 AM 66.0°F18.9°C 62.0°F16.7°C 87% 3.5 mph E5.6 kmh E 3.5 mph5.6 kmh 31.83 in1077.9 mb - 0.00 in0.0 mm 0.00 in0.0 mm
08:35 AM 65.8°F18.8°C 62.1°F16.7°C 88% 2.3 mph E3.7 kmh E 2.3 mph3.7 kmh 31.83 in1077.9 mb - 0.00 in0.0 mm 0.00 in0.0 mm
08:40 AM 66.0°F18.9°C 62.0°F16.7°C 87% 3.5 mph E5.6 kmh E 3.5 mph5.6 kmh 31.83 in1077.9 mb - 0.00 in0.0 mm 0.00 in0.0 mm
08:45 AM 65.9°F18.8°C 62.2°F16.8°C 88% 2.3 mph ESE3.7 kmh ESE 2.3 mph3.7 kmh 31.83 in1077.9 mb - 0.00 in0.0 mm 0.00 in0.0 mm
08:50 AM 65.9°F18.8°C 62.2°F16.8°C 88% 2.3 mph SE3.7 kmh SE 2.3 mph3.7 kmh 31.83 in1077.9 mb - 0.00 in0.0 mm 0.00 in0.0 mm
08:55 AM 65.9°F18.8°C 62.3°F16.8°C 88% 2.3 mph E3.7 kmh E 3.5 mph5.6 kmh 31.83 in1077.9 mb - 0.00 in0.0 mm 0.00 in0.0 mm
09:00 AM 66.7°F19.3°C 62.7°F17.1°C 87% 2.3 mph ESE3.7 kmh ESE 3.5 mph5.6 kmh 31.83 in1077.9 mb - 0.00 in0.0 mm 0.00 in0.0 mm
09:10 AM 66.0°F18.9°C 62.4°F16.9°C 88% 2.3 mph ESE3.7 kmh ESE 3.5 mph5.6 kmh 31.83 in1077.9 mb - 0.00 in0.0 mm 0.00 in0.0 mm
09:15 AM 66.1°F18.9°C 62.4°F16.9°C 88% 2.3 mph ESE3.7 kmh ESE 3.5 mph5.6 kmh 31.83 in1077.9 mb - 0.00 in0.0 mm 0.00 in0.0 mm
09:20 AM 66.2°F19.0°C 62.2°F16.8°C 87% 2.3 mph ESE3.7 kmh ESE 3.5 mph5.6 kmh 31.83 in1077.9 mb - 0.00 in0.0 mm 0.00 in0.0 mm
09:25 AM 66.2°F19.0°C 62.2°F16.8°C 87% 3.5 mph E5.6 kmh E 3.5 mph5.6 kmh 31.83 in1077.9 mb - 0.00 in0.0 mm 0.00 in0.0 mm
09:30 AM 67.1°F19.5°C 62.7°F17.1°C 86% 3.5 mph ESE5.6 kmh ESE 3.5 mph5.6 kmh 31.83 in1077.9 mb - 0.00 in0.0 mm 0.00 in0.0 mm
09:35 AM 68.0°F20.0°C 63.3°F17.4°C 85% 3.5 mph E5.6 kmh E 3.5 mph5.6 kmh 31.83 in1077.9 mb - 0.00 in0.0 mm 0.00 in0.0 mm
09:40 AM 67.3°F19.6°C 63.0°F17.2°C 86% 3.5 mph E5.6 kmh E 4.6 mph7.4 kmh 31.83 in1077.9 mb - 0.00 in0.0 mm 0.00 in0.0 mm
09:45 AM 67.8°F19.9°C 63.5°F17.5°C 86% 3.5 mph ESE5.6 kmh ESE 3.5 mph5.6 kmh 31.83 in1077.9 mb - 0.00 in0.0 mm 0.00 in0.0 mm
09:50 AM 68.5°F20.3°C 64.1°F17.8°C 86% 3.5 mph SE5.6 kmh SE 3.5 mph5.6 kmh 31.83 in1077.9 mb - 0.00 in0.0 mm 0.00 in0.0 mm
09:55 AM 67.9°F19.9°C 63.3°F17.4°C 85% 2.3 mph ESE3.7 kmh ESE 3.5 mph5.6 kmh 31.83 in1077.9 mb - 0.00 in0.0 mm 0.00 in0.0 mm
10:00 AM 67.7°F19.8°C 63.7°F17.6°C 87% 2.3 mph SE3.7 kmh SE 3.5 mph5.6 kmh 31.83 in1077.9 mb - 0.00 in0.0 mm 0.00 in0.0 mm
10:10 AM 67.2°F19.6°C 63.5°F17.5°C 88% 3.5 mph ESE5.6 kmh ESE 3.5 mph5.6 kmh 31.83 in1077.9 mb - 0.00 in0.0 mm 0.00 in0.0 mm
10:15 AM 67.4°F19.7°C 63.7°F17.6°C 88% 3.5 mph ESE5.6 kmh ESE 5.8 mph9.3 kmh 31.83 in1077.9 mb - 0.00 in0.0 mm 0.00 in0.0 mm
10:20 AM 66.8°F19.3°C 63.5°F17.5°C 89% 2.3 mph ESE3.7 kmh ESE 3.5 mph5.6 kmh 31.83 in1077.9 mb - 0.00 in0.0 mm 0.00 in0.0 mm
10:25 AM 66.3°F19.1°C 63.6°F17.6°C 91% 2.3 mph SE3.7 kmh SE 1.2 mph1.9 kmh 31.83 in1077.9 mb - 0.00 in0.0 mm 0.00 in0.0 mm
10:30 AM 66.1°F18.9°C 63.4°F17.4°C 91% 2.3 mph E3.7 kmh E 2.3 mph3.7 kmh 31.83 in1077.9 mb - 0.00 in0.0 mm 0.00 in0.0 mm
10:35 AM 66.3°F19.1°C 63.6°F17.6°C 91% 2.3 mph ESE3.7 kmh ESE 3.5 mph5.6 kmh 31.83 in1077.9 mb - 0.00 in0.0 mm 0.00 in0.0 mm
10:40 AM 66.9°F19.4°C 63.8°F17.7°C 90% 2.3 mph SE3.7 kmh SE 3.5 mph5.6 kmh 31.83 in1077.9 mb - 0.00 in0.0 mm 0.00 in0.0 mm
10:45 AM 66.8°F19.3°C 63.8°F17.7°C 90% 2.3 mph ESE3.7 kmh ESE 2.3 mph3.7 kmh 31.83 in1077.9 mb - 0.00 in0.0 mm 0.00 in0.0 mm
10:50 AM 66.9°F19.4°C 63.8°F17.7°C 90% 2.3 mph E3.7 kmh E 4.6 mph7.4 kmh 31.83 in1077.9 mb - 0.00 in0.0 mm 0.00 in0.0 mm
10:55 AM 66.0°F18.9°C 63.3°F17.4°C 91% 2.3 mph ESE3.7 kmh ESE 3.5 mph5.6 kmh 31.83 in1077.9 mb - 0.00 in0.0 mm 0.00 in0.0 mm
11:00 AM 65.7°F18.7°C 63.4°F17.4°C 92% 1.2 mph SE1.9 kmh SE 1.2 mph1.9 kmh 31.83 in1077.9 mb - 0.00 in0.0 mm 0.00 in0.0 mm
11:10 AM 65.7°F18.7°C 63.7°F17.6°C 93% 2.3 mph E3.7 kmh E 2.3 mph3.7 kmh 31.83 in1077.9 mb - 0.00 in0.0 mm 0.00 in0.0 mm
11:15 AM 66.5°F19.2°C 64.1°F17.8°C 92% 2.3 mph E3.7 kmh E 2.3 mph3.7 kmh 31.83 in1077.9 mb - 0.00 in0.0 mm 0.00 in0.0 mm
11:20 AM 68.2°F20.1°C 64.8°F18.2°C 89% 2.3 mph ESE3.7 kmh ESE 3.5 mph5.6 kmh 31.83 in1077.9 mb - 0.00 in0.0 mm 0.00 in0.0 mm
11:25 AM 68.4°F20.2°C 64.7°F18.2°C 88% 3.5 mph E5.6 kmh E 4.6 mph7.4 kmh 31.83 in1077.9 mb - 0.00 in0.0 mm 0.00 in0.0 mm
11:30 AM 69.2°F20.7°C 64.8°F18.2°C 86% 2.3 mph ESE3.7 kmh ESE 3.5 mph5.6 kmh 31.83 in1077.9 mb - 0.00 in0.0 mm 0.00 in0.0 mm
11:35 AM 69.6°F20.9°C 65.2°F18.4°C 86% 2.3 mph SE3.7 kmh SE 3.5 mph5.6 kmh 31.83 in1077.9 mb - 0.00 in0.0 mm 0.00 in0.0 mm
11:40 AM 68.7°F20.4°C 64.7°F18.2°C 87% 2.3 mph SE3.7 kmh SE 4.6 mph7.4 kmh 31.83 in1077.9 mb - 0.00 in0.0 mm 0.00 in0.0 mm
11:45 AM 69.1°F20.6°C 65.0°F18.3°C 87% 2.3 mph ESE3.7 kmh ESE 2.3 mph3.7 kmh 31.83 in1077.9 mb - 0.00 in0.0 mm 0.00 in0.0 mm
11:50 AM 70.9°F21.6°C 65.5°F18.6°C 83% 3.5 mph SE5.6 kmh SE 5.8 mph9.3 kmh 31.83 in1077.9 mb - 0.00 in0.0 mm 0.00 in0.0 mm
11:55 AM 71.6°F22.0°C 66.1°F18.9°C 83% 3.5 mph ESE5.6 kmh ESE 4.6 mph7.4 kmh 31.83 in1077.9 mb - 0.00 in0.0 mm 0.00 in0.0 mm
12:00 PM 70.9°F21.6°C 65.5°F18.6°C 83% 3.5 mph ESE5.6 kmh ESE 4.6 mph7.4 kmh 31.83 in1077.9 mb - 0.00 in0.0 mm 0.00 in0.0 mm
12:10 PM 69.6°F20.9°C 65.2°F18.4°C 86% 3.5 mph E5.6 kmh E 5.8 mph9.3 kmh 31.83 in1077.9 mb - 0.00 in0.0 mm 0.00 in0.0 mm
12:15 PM 69.5°F20.8°C 65.5°F18.6°C 87% 1.2 mph SE1.9 kmh SE 3.5 mph5.6 kmh 31.83 in1077.9 mb - 0.00 in0.0 mm 0.00 in0.0 mm
12:20 PM 68.4°F20.2°C 65.0°F18.3°C 89% 2.3 mph E3.7 kmh E 3.5 mph5.6 kmh 31.83 in1077.9 mb - 0.00 in0.0 mm 0.00 in0.0 mm
12:25 PM 69.2°F20.7°C 65.5°F18.6°C 88% 2.3 mph ESE3.7 kmh ESE 3.5 mph5.6 kmh 31.83 in1077.9 mb - 0.00 in0.0 mm 0.00 in0.0 mm
12:30 PM 69.1°F20.6°C 65.0°F18.3°C 87% 3.5 mph ESE5.6 kmh ESE 3.5 mph5.6 kmh 31.83 in1077.9 mb - 0.00 in0.0 mm 0.00 in0.0 mm
12:35 PM 70.4°F21.3°C 66.0°F18.9°C 86% 3.5 mph ESE5.6 kmh ESE 4.6 mph7.4 kmh 31.83 in1077.9 mb - 0.00 in0.0 mm 0.00 in0.0 mm
12:40 PM 70.2°F21.2°C 65.8°F18.8°C 86% 3.5 mph ESE5.6 kmh ESE 3.5 mph5.6 kmh 31.83 in1077.9 mb - 0.00 in0.0 mm 0.00 in0.0 mm
12:45 PM 71.6°F22.0°C 66.5°F19.2°C 84% 2.3 mph ESE3.7 kmh ESE 3.5 mph5.6 kmh 31.83 in1077.9 mb - 0.00 in0.0 mm 0.00 in0.0 mm
12:50 PM 70.8°F21.6°C 66.1°F18.9°C 85% 3.5 mph ESE5.6 kmh ESE 4.6 mph7.4 kmh 31.83 in1077.9 mb - 0.00 in0.0 mm 0.00 in0.0 mm
12:55 PM 71.3°F21.8°C 66.2°F19.0°C 84% 3.5 mph ESE5.6 kmh ESE 3.5 mph5.6 kmh 31.83 in1077.9 mb - 0.00 in0.0 mm 0.00 in0.0 mm
01:00 PM 71.4°F21.9°C 66.3°F19.1°C 84% 3.5 mph ESE5.6 kmh ESE 3.5 mph5.6 kmh 31.83 in1077.9 mb - 0.00 in0.0 mm 0.00 in0.0 mm
01:10 PM 71.1°F21.7°C 66.3°F19.1°C 85% 3.5 mph ESE5.6 kmh ESE 3.5 mph5.6 kmh 31.83 in1077.9 mb - 0.00 in0.0 mm 0.00 in0.0 mm
01:15 PM 70.7°F21.5°C 66.3°F19.1°C 86% 4.6 mph E7.4 kmh E 5.8 mph9.3 kmh 31.83 in1077.9 mb - 0.00 in0.0 mm 0.00 in0.0 mm
01:20 PM 72.1°F22.3°C 66.7°F19.3°C 83% 3.5 mph E5.6 kmh E 3.5 mph5.6 kmh 31.83 in1077.9 mb - 0.00 in0.0 mm 0.00 in0.0 mm
01:25 PM 72.5°F22.5°C 67.0°F19.4°C 83% 3.5 mph SE5.6 kmh SE 3.5 mph5.6 kmh 31.83 in1077.9 mb - 0.00 in0.0 mm 0.00 in0.0 mm
01:30 PM 71.6°F22.0°C 66.5°F19.2°C 84% 3.5 mph E5.6 kmh E 4.6 mph7.4 kmh 31.83 in1077.9 mb - 0.00 in0.0 mm 0.00 in0.0 mm
01:35 PM 71.4°F21.9°C 66.3°F19.1°C 84% 3.5 mph E5.6 kmh E 4.6 mph7.4 kmh 31.83 in1077.9 mb - 0.00 in0.0 mm 0.00 in0.0 mm
01:40 PM 71.4°F21.9°C 66.3°F19.1°C 84% 3.5 mph ESE5.6 kmh ESE 4.6 mph7.4 kmh 31.83 in1077.9 mb - 0.00 in0.0 mm 0.00 in0.0 mm
01:45 PM 71.4°F21.9°C 66.3°F19.1°C 84% 3.5 mph ESE5.6 kmh ESE 4.6 mph7.4 kmh 31.83 in1077.9 mb - 0.00 in0.0 mm 0.00 in0.0 mm
01:50 PM 71.2°F21.8°C 66.2°F19.0°C 84% 3.5 mph ESE5.6 kmh ESE 4.6 mph7.4 kmh 31.83 in1077.9 mb - 0.00 in0.0 mm 0.00 in0.0 mm
01:55 PM 71.0°F21.7°C 66.2°F19.0°C 85% 3.5 mph ESE5.6 kmh ESE 5.8 mph9.3 kmh 31.83 in1077.9 mb - 0.00 in0.0 mm 0.00 in0.0 mm
02:00 PM 71.3°F21.8°C 66.2°F19.0°C 84% 3.5 mph ESE5.6 kmh ESE 3.5 mph5.6 kmh 31.83 in1077.9 mb - 0.00 in0.0 mm 0.00 in0.0 mm
02:10 PM 71.4°F21.9°C 66.3°F19.1°C 84% 3.5 mph ESE5.6 kmh ESE 3.5 mph5.6 kmh 31.83 in1077.9 mb - 0.00 in0.0 mm 0.00 in0.0 mm
02:15 PM 72.7°F22.6°C 67.2°F19.6°C 83% 3.5 mph E5.6 kmh E 4.6 mph7.4 kmh 31.83 in1077.9 mb - 0.00 in0.0 mm 0.00 in0.0 mm
02:20 PM 73.1°F22.8°C 67.3°F19.6°C 82% 3.5 mph ESE5.6 kmh ESE 3.5 mph5.6 kmh 31.83 in1077.9 mb - 0.00 in0.0 mm 0.00 in0.0 mm
02:25 PM 72.4°F22.4°C 66.9°F19.4°C 83% 3.5 mph E5.6 kmh E 3.5 mph5.6 kmh 31.83 in1077.9 mb - 0.00 in0.0 mm 0.00 in0.0 mm
02:30 PM 70.9°F21.6°C 66.1°F18.9°C 85% 3.5 mph SE5.6 kmh SE 3.5 mph5.6 kmh 31.83 in1077.9 mb - 0.00 in0.0 mm 0.00 in0.0 mm
02:35 PM 70.3°F21.3°C 66.2°F19.0°C 87% 3.5 mph ESE5.6 kmh ESE 2.3 mph3.7 kmh 31.83 in1077.9 mb - 0.00 in0.0 mm 0.00 in0.0 mm
02:40 PM 70.4°F21.3°C 66.0°F18.9°C 86% 2.3 mph E3.7 kmh E 2.3 mph3.7 kmh 31.83 in1077.9 mb - 0.00 in0.0 mm 0.00 in0.0 mm
02:45 PM 70.3°F21.3°C 65.9°F18.8°C 86% 3.5 mph ESE5.6 kmh ESE 3.5 mph5.6 kmh 31.83 in1077.9 mb - 0.00 in0.0 mm 0.00 in0.0 mm
02:50 PM 70.0°F21.1°C 65.9°F18.8°C 87% 2.3 mph ESE3.7 kmh ESE 3.5 mph5.6 kmh 31.83 in1077.9 mb - 0.00 in0.0 mm 0.00 in0.0 mm
02:55 PM 69.5°F20.8°C 65.5°F18.6°C 87% 3.5 mph ESE5.6 kmh ESE 2.3 mph3.7 kmh 31.83 in1077.9 mb - 0.00 in0.0 mm 0.00 in0.0 mm
03:00 PM 69.1°F20.6°C 65.4°F18.6°C 88% 2.3 mph E3.7 kmh E 3.5 mph5.6 kmh 31.83 in1077.9 mb - 0.00 in0.0 mm 0.00 in0.0 mm
03:10 PM 69.2°F20.7°C 65.5°F18.6°C 88% 3.5 mph ESE5.6 kmh ESE 3.5 mph5.6 kmh 31.83 in1077.9 mb - 0.00 in0.0 mm 0.00 in0.0 mm
03:15 PM 69.8°F21.0°C 66.1°F18.9°C 88% 3.5 mph ESE5.6 kmh ESE 4.6 mph7.4 kmh 31.83 in1077.9 mb - 0.00 in0.0 mm 0.00 in0.0 mm
03:20 PM 69.8°F21.0°C 66.1°F18.9°C 88% 2.3 mph E3.7 kmh E 2.3 mph3.7 kmh 31.83 in1077.9 mb - 0.00 in0.0 mm 0.00 in0.0 mm
03:25 PM 69.8°F21.0°C 66.4°F19.1°C 89% 3.5 mph E5.6 kmh E 4.6 mph7.4 kmh 31.83 in1077.9 mb - 0.00 in0.0 mm 0.00 in0.0 mm
03:30 PM 69.5°F20.8°C 66.4°F19.1°C 90% 3.5 mph E5.6 kmh E 3.5 mph5.6 kmh 31.83 in1077.9 mb - 0.00 in0.0 mm 0.00 in0.0 mm
03:35 PM 69.0°F20.6°C 66.6°F19.2°C 92% 2.3 mph E3.7 kmh E 2.3 mph3.7 kmh 31.83 in1077.9 mb - 0.00 in0.0 mm 0.00 in0.0 mm
03:40 PM 68.6°F20.3°C 66.5°F19.2°C 93% 3.5 mph E5.6 kmh E 3.5 mph5.6 kmh 31.83 in1077.9 mb - 0.00 in0.0 mm 0.00 in0.0 mm
03:45 PM 68.2°F20.1°C 66.4°F19.1°C 94% 3.5 mph E5.6 kmh E 3.5 mph5.6 kmh 31.83 in1077.9 mb - 0.02 in0.5 mm 0.02 in0.5 mm
03:50 PM 67.5°F19.7°C 66.0°F18.9°C 95% 2.3 mph E3.7 kmh E 2.3 mph3.7 kmh 31.83 in1077.9 mb - 0.03 in0.8 mm 0.03 in0.8 mm
03:55 PM 67.2°F19.6°C 66.0°F18.9°C 96% 2.3 mph SE3.7 kmh SE 2.3 mph3.7 kmh 31.83 in1077.9 mb - 0.05 in1.3 mm 0.05 in1.3 mm
04:00 PM 66.9°F19.4°C 66.0°F18.9°C 97% 2.3 mph E3.7 kmh E 2.3 mph3.7 kmh 31.83 in1077.9 mb - 0.08 in2.0 mm 0.08 in2.0 mm
04:10 PM 66.4°F19.1°C 66.1°F18.9°C 99% 2.3 mph E3.7 kmh E 2.3 mph3.7 kmh 31.83 in1077.9 mb - 0.10 in2.5 mm 0.10 in2.5 mm
04:15 PM 66.2°F19.0°C 65.9°F18.8°C 99% 2.3 mph E3.7 kmh E 2.3 mph3.7 kmh 31.83 in1077.9 mb - 0.11 in2.8 mm 0.11 in2.8 mm
04:20 PM 66.2°F19.0°C 65.9°F18.8°C 99% 2.3 mph ESE3.7 kmh ESE 3.5 mph5.6 kmh 31.83 in1077.9 mb - 0.12 in3.0 mm 0.12 in3.0 mm
04:25 PM 66.2°F19.0°C 65.9°F18.8°C 99% 1.2 mph E1.9 kmh E 1.2 mph1.9 kmh 31.83 in1077.9 mb - 0.13 in3.3 mm 0.13 in3.3 mm
04:30 PM 66.2°F19.0°C 65.9°F18.8°C 99% 1.2 mph S1.9 kmh S 3.5 mph5.6 kmh 31.83 in1077.9 mb - 0.14 in3.6 mm 0.14 in3.6 mm
04:35 PM 66.4°F19.1°C 66.1°F18.9°C 99% 2.3 mph SSE3.7 kmh SSE 1.2 mph1.9 kmh 31.83 in1077.9 mb - 0.14 in3.6 mm 0.14 in3.6 mm
04:40 PM 66.4°F19.1°C 66.1°F18.9°C 99% 2.3 mph E3.7 kmh E 3.5 mph5.6 kmh 31.83 in1077.9 mb - 0.14 in3.6 mm 0.14 in3.6 mm
04:45 PM 66.4°F19.1°C 66.1°F18.9°C 99% 2.3 mph SE3.7 kmh SE 4.6 mph7.4 kmh 31.83 in1077.9 mb - 0.12 in3.0 mm 0.14 in3.6 mm
04:50 PM 66.2°F19.0°C 65.9°F18.8°C 99% 3.5 mph ESE5.6 kmh ESE 4.6 mph7.4 kmh 31.83 in1077.9 mb - 0.12 in3.0 mm 0.15 in3.8 mm
04:55 PM 66.0°F18.9°C 65.7°F18.7°C 99% 5.8 mph SSE9.3 kmh SSE 6.9 mph11.1 kmh 31.83 in1077.9 mb - 0.10 in2.5 mm 0.15 in3.8 mm
05:00 PM 65.9°F18.8°C 65.6°F18.7°C 99% 10.4 mph S16.7 kmh S 12.7 mph20.4 kmh 31.83 in1077.9 mb - 0.09 in2.3 mm 0.16 in4.1 mm
05:10 PM 65.1°F18.4°C 64.8°F18.2°C 99% 6.9 mph S11.1 kmh S 6.9 mph11.1 kmh 31.83 in1077.9 mb - 0.12 in3.0 mm 0.22 in5.6 mm
05:15 PM 65.0°F18.3°C 64.7°F18.2°C 99% 6.9 mph S11.1 kmh S 8.1 mph13.0 kmh 31.83 in1077.9 mb - 0.17 in4.3 mm 0.28 in7.1 mm
05:20 PM 65.1°F18.4°C 64.8°F18.2°C 99% 8.1 mph S13.0 kmh S 9.2 mph14.8 kmh 31.83 in1077.9 mb - 0.23 in5.8 mm 0.34 in8.6 mm
05:25 PM 65.2°F18.4°C 64.9°F18.3°C 99% 3.5 mph SE5.6 kmh SE 3.5 mph5.6 kmh 31.83 in1077.9 mb - 0.23 in5.8 mm 0.36 in9.1 mm
05:30 PM 65.7°F18.7°C 65.4°F18.6°C 99% 2.3 mph SE3.7 kmh SE 2.3 mph3.7 kmh 31.83 in1077.9 mb - 0.22 in5.6 mm 0.36 in9.1 mm
05:35 PM 65.7°F18.7°C 65.4°F18.6°C 99% 3.5 mph SSE5.6 kmh SSE 8.1 mph13.0 kmh 31.83 in1077.9 mb - 0.22 in5.6 mm 0.36 in9.1 mm
05:40 PM 65.7°F18.7°C 65.4°F18.6°C 99% 6.9 mph S11.1 kmh S 8.1 mph13.0 kmh 31.83 in1077.9 mb - 0.22 in5.6 mm 0.36 in9.1 mm
05:45 PM 65.5°F18.6°C 65.2°F18.4°C 99% 9.2 mph SSW14.8 kmh SSW 9.2 mph14.8 kmh 31.83 in1077.9 mb - 0.22 in5.6 mm 0.36 in9.1 mm
05:50 PM 65.5°F18.6°C 65.2°F18.4°C 99% 9.2 mph S14.8 kmh S 10.4 mph16.7 kmh 31.83 in1077.9 mb - 0.21 in5.3 mm 0.36 in9.1 mm
05:55 PM 65.5°F18.6°C 65.2°F18.4°C 99% 8.1 mph SE13.0 kmh SE 8.1 mph13.0 kmh 31.83 in1077.9 mb - 0.21 in5.3 mm 0.36 in9.1 mm
06:00 PM 65.3°F18.5°C 65.0°F18.3°C 99% 8.1 mph SSE13.0 kmh SSE 10.4 mph16.7 kmh 31.83 in1077.9 mb - 0.20 in5.1 mm 0.36 in9.1 mm
06:10 PM 65.9°F18.8°C 65.6°F18.7°C 99% 9.2 mph SE14.8 kmh SE 11.5 mph18.5 kmh 31.83 in1077.9 mb - 0.14 in3.6 mm 0.36 in9.1 mm
06:15 PM 65.9°F18.8°C 65.6°F18.7°C 99% 9.2 mph S14.8 kmh S 11.5 mph18.5 kmh 31.83 in1077.9 mb - 0.08 in2.0 mm 0.36 in9.1 mm
06:20 PM 66.0°F18.9°C 65.7°F18.7°C 99% 10.4 mph S16.7 kmh S 13.8 mph22.2 kmh 31.83 in1077.9 mb - 0.02 in0.5 mm 0.36 in9.1 mm
06:25 PM 66.2°F19.0°C 65.9°F18.8°C 99% 18.4 mph SSW29.6 kmh SSW 19.6 mph31.5 kmh 31.83 in1077.9 mb - 0.01 in0.3 mm 0.36 in9.1 mm
06:30 PM 66.2°F19.0°C 65.9°F18.8°C 99% 19.6 mph SSW31.5 kmh SSW 19.6 mph31.5 kmh 31.83 in1077.9 mb - 0.00 in0.0 mm 0.36 in9.1 mm
06:35 PM 65.8°F18.8°C 65.5°F18.6°C 99% 15.0 mph SSW24.1 kmh SSW 16.1 mph25.9 kmh 31.83 in1077.9 mb - 0.00 in0.0 mm 0.36 in9.1 mm
06:40 PM 65.5°F18.6°C 65.2°F18.4°C 99% 13.8 mph SSW22.2 kmh SSW 15.0 mph24.1 kmh 31.83 in1077.9 mb - 0.00 in0.0 mm 0.36 in9.1 mm
06:45 PM 65.1°F18.4°C 64.8°F18.2°C 99% 11.5 mph SSW18.5 kmh SSW 12.7 mph20.4 kmh 31.83 in1077.9 mb - 0.00 in0.0 mm 0.36 in9.1 mm
06:50 PM 65.1°F18.4°C 64.8°F18.2°C 99% 9.2 mph SSW14.8 kmh SSW 10.4 mph16.7 kmh 31.83 in1077.9 mb - 0.00 in0.0 mm 0.36 in9.1 mm
06:55 PM 65.4°F18.6°C 65.1°F18.4°C 99% 9.2 mph SSW14.8 kmh SSW 10.4 mph16.7 kmh 31.83 in1077.9 mb - 0.00 in0.0 mm 0.36 in9.1 mm
07:00 PM 65.7°F18.7°C 65.4°F18.6°C 99% 4.6 mph SW7.4 kmh SW 5.8 mph9.3 kmh 31.83 in1077.9 mb - 0.00 in0.0 mm 0.36 in9.1 mm
07:10 PM 65.9°F18.8°C 65.6°F18.7°C 99% 4.6 mph SSW7.4 kmh SSW 6.9 mph11.1 kmh 31.83 in1077.9 mb - 0.00 in0.0 mm 0.36 in9.1 mm
07:15 PM 65.9°F18.8°C 65.6°F18.7°C 99% 9.2 mph SW14.8 kmh SW 10.4 mph16.7 kmh 31.83 in1077.9 mb - 0.00 in0.0 mm 0.36 in9.1 mm
07:20 PM 65.6°F18.7°C 65.3°F18.5°C 99% 10.4 mph WSW16.7 kmh WSW 12.7 mph20.4 kmh 31.83 in1077.9 mb - 0.00 in0.0 mm 0.36 in9.1 mm
07:25 PM 65.9°F18.8°C 65.6°F18.7°C 99% 5.8 mph SW9.3 kmh SW 5.8 mph9.3 kmh 31.83 in1077.9 mb - 0.00 in0.0 mm 0.36 in9.1 mm
07:30 PM 66.0°F18.9°C 65.7°F18.7°C 99% 8.1 mph SW13.0 kmh SW 9.2 mph14.8 kmh 31.83 in1077.9 mb - 0.00 in0.0 mm 0.36 in9.1 mm
07:35 PM 66.0°F18.9°C 65.7°F18.7°C 99% 6.9 mph SW11.1 kmh SW 8.1 mph13.0 kmh 31.83 in1077.9 mb - 0.00 in0.0 mm 0.36 in9.1 mm
07:40 PM 66.0°F18.9°C 65.7°F18.7°C 99% 5.8 mph WSW9.3 kmh WSW 10.4 mph16.7 kmh 31.83 in1077.9 mb - 0.00 in0.0 mm 0.36 in9.1 mm
07:45 PM 66.0°F18.9°C 65.7°F18.7°C 99% 4.6 mph WSW7.4 kmh WSW 8.1 mph13.0 kmh 31.83 in1077.9 mb - 0.00 in0.0 mm 0.36 in9.1 mm
07:50 PM 66.0°F18.9°C 65.7°F18.7°C 99% 4.6 mph SW7.4 kmh SW 5.8 mph9.3 kmh 31.83 in1077.9 mb - 0.00 in0.0 mm 0.36 in9.1 mm
07:55 PM 66.0°F18.9°C 65.7°F18.7°C 99% 3.5 mph S5.6 kmh S 5.8 mph9.3 kmh 31.83 in1077.9 mb - 0.00 in0.0 mm 0.36 in9.1 mm
08:00 PM 66.0°F18.9°C 65.7°F18.7°C 99% 2.3 mph S3.7 kmh S 4.6 mph7.4 kmh 31.83 in1077.9 mb - 0.00 in0.0 mm 0.36 in9.1 mm
08:10 PM 65.9°F18.8°C 65.6°F18.7°C 99% 2.3 mph SE3.7 kmh SE 2.3 mph3.7 kmh 31.83 in1077.9 mb - 0.00 in0.0 mm 0.36 in9.1 mm
08:15 PM 65.9°F18.8°C 65.6°F18.7°C 99% 2.3 mph S3.7 kmh S 4.6 mph7.4 kmh 31.83 in1077.9 mb - 0.00 in0.0 mm 0.36 in9.1 mm
08:20 PM 65.9°F18.8°C 65.6°F18.7°C 99% 4.6 mph SW7.4 kmh SW 3.5 mph5.6 kmh 31.83 in1077.9 mb - 0.00 in0.0 mm 0.36 in9.1 mm
08:25 PM 65.9°F18.8°C 65.6°F18.7°C 99% 4.6 mph SW7.4 kmh SW 6.9 mph11.1 kmh 31.83 in1077.9 mb - 0.00 in0.0 mm 0.36 in9.1 mm
08:30 PM 65.9°F18.8°C 65.6°F18.7°C 99% 3.5 mph SW5.6 kmh SW 6.9 mph11.1 kmh 31.83 in1077.9 mb - 0.00 in0.0 mm 0.36 in9.1 mm
08:35 PM 65.9°F18.8°C 65.6°F18.7°C 99% 4.6 mph WSW7.4 kmh WSW 5.8 mph9.3 kmh 31.83 in1077.9 mb - 0.00 in0.0 mm 0.36 in9.1 mm
08:40 PM 65.7°F18.7°C 65.4°F18.6°C 99% 5.8 mph SW9.3 kmh SW 6.9 mph11.1 kmh 31.83 in1077.9 mb - 0.00 in0.0 mm 0.36 in9.1 mm
08:45 PM 65.7°F18.7°C 65.4°F18.6°C 99% 3.5 mph WSW5.6 kmh WSW 5.8 mph9.3 kmh 31.83 in1077.9 mb - 0.00 in0.0 mm 0.36 in9.1 mm
08:50 PM 65.4°F18.6°C 65.1°F18.4°C 99% 3.5 mph WSW5.6 kmh WSW 4.6 mph7.4 kmh 31.83 in1077.9 mb - 0.00 in0.0 mm 0.36 in9.1 mm
08:55 PM 65.3°F18.5°C 65.0°F18.3°C 99% 4.6 mph SW7.4 kmh SW 4.6 mph7.4 kmh 31.83 in1077.9 mb - 0.00 in0.0 mm 0.36 in9.1 mm
09:00 PM 65.3°F18.5°C 65.0°F18.3°C 99% 5.8 mph WSW9.3 kmh WSW 5.8 mph9.3 kmh 31.83 in1077.9 mb - 0.00 in0.0 mm 0.36 in9.1 mm
09:10 PM 65.1°F18.4°C 64.8°F18.2°C 99% 6.9 mph WSW11.1 kmh WSW 10.4 mph16.7 kmh 31.83 in1077.9 mb - 0.00 in0.0 mm 0.36 in9.1 mm
09:15 PM 65.1°F18.4°C 64.8°F18.2°C 99% 4.6 mph SSW7.4 kmh SSW 6.9 mph11.1 kmh 31.83 in1077.9 mb - 0.00 in0.0 mm 0.36 in9.1 mm
09:20 PM 65.1°F18.4°C 64.8°F18.2°C 99% 5.8 mph SSW9.3 kmh SSW 10.4 mph16.7 kmh 31.83 in1077.9 mb - 0.00 in0.0 mm 0.36 in9.1 mm
09:25 PM 65.0°F18.3°C 64.7°F18.2°C 99% 4.6 mph WSW7.4 kmh WSW 5.8 mph9.3 kmh 31.83 in1077.9 mb - 0.00 in0.0 mm 0.36 in9.1 mm
09:30 PM 65.0°F18.3°C 64.7°F18.2°C 99% 5.8 mph W9.3 kmh W 5.8 mph9.3 kmh 31.83 in1077.9 mb - 0.00 in0.0 mm 0.36 in9.1 mm
09:35 PM 65.0°F18.3°C 64.7°F18.2°C 99% 3.5 mph W5.6 kmh W 5.8 mph9.3 kmh 31.83 in1077.9 mb - 0.00 in0.0 mm 0.36 in9.1 mm
09:40 PM 65.0°F18.3°C 64.7°F18.2°C 99% 4.6 mph S7.4 kmh S 8.1 mph13.0 kmh 31.83 in1077.9 mb - 0.00 in0.0 mm 0.36 in9.1 mm
09:45 PM 65.0°F18.3°C 64.7°F18.2°C 99% 3.5 mph WSW5.6 kmh WSW 5.8 mph9.3 kmh 31.83 in1077.9 mb - 0.00 in0.0 mm 0.36 in9.1 mm
09:50 PM 65.0°F18.3°C 64.7°F18.2°C 99% 3.5 mph N5.6 kmh N 4.6 mph7.4 kmh 31.83 in1077.9 mb - 0.00 in0.0 mm 0.36 in9.1 mm
09:55 PM 65.0°F18.3°C 64.7°F18.2°C 99% 2.3 mph E3.7 kmh E 3.5 mph5.6 kmh 31.83 in1077.9 mb - 0.00 in0.0 mm 0.36 in9.1 mm
10:00 PM 65.0°F18.3°C 64.7°F18.2°C 99% 2.3 mph W3.7 kmh W 5.8 mph9.3 kmh 31.83 in1077.9 mb - 0.00 in0.0 mm 0.36 in9.1 mm
10:10 PM 65.0°F18.3°C 64.7°F18.2°C 99% 2.3 mph NNE3.7 kmh NNE 2.3 mph3.7 kmh 31.83 in1077.9 mb - 0.00 in0.0 mm 0.36 in9.1 mm
10:15 PM 65.0°F18.3°C 64.7°F18.2°C 99% 3.5 mph SW5.6 kmh SW 4.6 mph7.4 kmh 31.83 in1077.9 mb - 0.00 in0.0 mm 0.36 in9.1 mm
10:20 PM 64.8°F18.2°C 64.5°F18.1°C 99% 2.3 mph NW3.7 kmh NW 4.6 mph7.4 kmh 31.83 in1077.9 mb - 0.00 in0.0 mm 0.36 in9.1 mm
10:25 PM 64.8°F18.2°C 64.5°F18.1°C 99% 3.5 mph WSW5.6 kmh WSW 6.9 mph11.1 kmh 31.83 in1077.9 mb - 0.00 in0.0 mm 0.36 in9.1 mm
10:30 PM 64.8°F18.2°C 64.5°F18.1°C 99% 3.5 mph WSW5.6 kmh WSW 3.5 mph5.6 kmh 31.83 in1077.9 mb - 0.00 in0.0 mm 0.36 in9.1 mm
10:35 PM 64.8°F18.2°C 64.5°F18.1°C 99% 3.5 mph SW5.6 kmh SW 4.6 mph7.4 kmh 31.83 in1077.9 mb - 0.00 in0.0 mm 0.36 in9.1 mm
10:40 PM 64.8°F18.2°C 64.5°F18.1°C 99% 5.8 mph W9.3 kmh W 8.1 mph13.0 kmh 31.83 in1077.9 mb - 0.00 in0.0 mm 0.36 in9.1 mm
10:45 PM 64.9°F18.3°C 64.6°F18.1°C 99% 3.5 mph SW5.6 kmh SW 4.6 mph7.4 kmh 31.83 in1077.9 mb - 0.00 in0.0 mm 0.36 in9.1 mm
10:50 PM 65.0°F18.3°C 64.7°F18.2°C 99% 3.5 mph SW5.6 kmh SW 4.6 mph7.4 kmh 31.83 in1077.9 mb - 0.00 in0.0 mm 0.36 in9.1 mm
10:55 PM 65.1°F18.4°C 64.8°F18.2°C 99% 4.6 mph SW7.4 kmh SW 5.8 mph9.3 kmh 31.83 in1077.9 mb - 0.00 in0.0 mm 0.36 in9.1 mm
11:00 PM 65.1°F18.4°C 64.8°F18.2°C 99% 4.6 mph SSW7.4 kmh SSW 4.6 mph7.4 kmh 31.83 in1077.9 mb - 0.00 in0.0 mm 3.99 in101.3 mm
11:10 PM 65.0°F18.3°C 64.7°F18.2°C 99% 3.5 mph SSW5.6 kmh SSW 6.9 mph11.1 kmh 31.83 in1077.9 mb - 0.00 in0.0 mm 3.99 in101.3 mm
11:15 PM 64.8°F18.2°C 64.5°F18.1°C 99% 6.9 mph WNW11.1 kmh WNW 12.7 mph20.4 kmh 31.83 in1077.9 mb - 0.00 in0.0 mm 3.99 in101.3 mm
11:20 PM 64.6°F18.1°C 64.0°F17.8°C 98% 6.9 mph NW11.1 kmh NW 10.4 mph16.7 kmh 31.83 in1077.9 mb - 0.00 in0.0 mm 3.99 in101.3 mm
11:25 PM 64.4°F18.0°C 62.9°F17.2°C 95% 5.8 mph N9.3 kmh N 6.9 mph11.1 kmh 31.83 in1077.9 mb - 0.00 in0.0 mm 3.99 in101.3 mm
11:30 PM 64.2°F17.9°C 62.1°F16.7°C 93% 6.9 mph WNW11.1 kmh WNW 8.1 mph13.0 kmh 31.83 in1077.9 mb - 0.00 in0.0 mm 3.99 in101.3 mm
11:35 PM 64.1°F17.8°C 62.0°F16.7°C 93% 4.6 mph NW7.4 kmh NW 5.8 mph9.3 kmh 31.83 in1077.9 mb - 0.00 in0.0 mm 3.99 in101.3 mm
11:40 PM 63.7°F17.6°C 61.6°F16.4°C 93% 5.8 mph NW9.3 kmh NW 11.5 mph18.5 kmh 31.83 in1077.9 mb - 0.00 in0.0 mm 3.99 in101.3 mm
11:45 PM 63.5°F17.5°C 61.1°F16.2°C 92% 3.5 mph WNW5.6 kmh WNW 5.8 mph9.3 kmh 31.83 in1077.9 mb - 0.00 in0.0 mm 3.99 in101.3 mm
11:50 PM 63.5°F17.5°C 61.1°F16.2°C 92% 3.5 mph N5.6 kmh N 4.6 mph7.4 kmh 31.83 in1077.9 mb - 0.00 in0.0 mm 3.99 in101.3 mm
11:55 PM 63.3°F17.4°C 60.9°F16.1°C 92% 2.3 mph N3.7 kmh N 4.6 mph7.4 kmh 31.83 in1077.9 mb - 0.00 in0.0 mm 3.99 in101.3 mm